Ekokontrol — CLASSB — position and weather

sailwx.info

Track history (hours):
 
Tides and Currents Weather Stations Pressure Air Temp Water Temp Dewpoint Dewpoint Depression Visibility Wind Speed Wind Dir Waves Ship Positions

Ekokontrol

Last reported at 2017-Dec-03 04:19 UTC. Time now 2017-Dec-12 08:36 UTC.
Position N 22°28' E 120°26'.
Warning: this ship's position is 9 days out of date.

Length 23 m.

Type: Pilot. MMSI: 272594000.

Date/timePositionNaut miles runAvg speedWind from/ knotsBaromVisibWave heightAir tempDewpointWater temp
2017-Dec-03 04:19N 22°28' E 120°26'0 0.7
2017-Dec-03 03:56N 22°28' E 120°27'0 0.0
2017-Dec-03 03:30N 22°28' E 120°27'0 0.0
2017-Dec-03 03:00N 22°28' E 120°27'4 5.1
2017-Dec-03 02:16N 22°25' E 120°25'1 1.4
2017-Dec-03 01:31N 22°23' E 120°25'0 0.2
2017-Dec-03 00:46N 22°23' E 120°25'4 0.2
2017-Dec-02 03:23N 22°24' E 120°20'4 6.2
2017-Dec-02 02:41N 22°23' E 120°25'0 1.0
2017-Dec-02 02:14N 22°24' E 120°25'0 1.3
2017-Dec-02 02:00N 22°23' E 120°25'0 0.1
2017-Dec-02 00:17N 22°23' E 120°25'0 0.0
2017-Dec-01 02:16N 22°23' E 120°25'0 0.1
2017-Nov-30 23:46N 22°23' E 120°25'0 0.9
2017-Nov-30 23:21N 22°23' E 120°25'0 0.6
2017-Nov-30 22:49N 22°23' E 120°25'0 0.0
2017-Nov-30 02:52N 22°23' E 120°25'0 0.7
2017-Nov-30 02:27N 22°23' E 120°25'0 0.1
2017-Nov-30 01:54N 22°23' E 120°25'0 0.1
2017-Nov-30 00:38N 22°23' E 120°25'0 0.1
2017-Nov-29 22:33N 22°23' E 120°25'5 0.2
2017-Nov-29 01:10N 22°24' E 120°20'1 4.6
2017-Nov-29 01:00N 22°24' E 120°21'4 0.1
2017-Nov-27 05:43N 22°25' E 120°25'3 8.1
2017-Nov-27 05:20N 22°28' E 120°26'  
Track history (hours):
 
Tides and Currents Weather Stations Pressure Air Temp Water Temp Dewpoint Dewpoint Depression Visibility Wind Speed Wind Dir Waves Ship Positions

Ekokontrol

Last reported at 2017-Dec-03 04:19 UTC. Time now 2017-Dec-12 08:36 UTC.
Position N 22°28' E 120°26'.
Warning: this ship's position is 9 days out of date.

Length 23 m.

Type: Pilot. MMSI: 272594000.

Date/timePositionNaut miles runAvg speedWind from/ knotsBaromVisibWave heightAir tempDewpointWater temp
2017-Dec-03 04:19N 22°28' E 120°26'0 0.7
2017-Dec-03 03:56N 22°28' E 120°27'0 0.0
2017-Dec-03 03:30N 22°28' E 120°27'0 0.0
2017-Dec-03 03:00N 22°28' E 120°27'4 5.1
2017-Dec-03 02:16N 22°25' E 120°25'1 1.4
2017-Dec-03 01:31N 22°23' E 120°25'0 0.2
2017-Dec-03 00:46N 22°23' E 120°25'4 0.2
2017-Dec-02 03:23N 22°24' E 120°20'4 6.2
2017-Dec-02 02:41N 22°23' E 120°25'0 1.0
2017-Dec-02 02:14N 22°24' E 120°25'0 1.3
2017-Dec-02 02:00N 22°23' E 120°25'0 0.1
2017-Dec-02 00:17N 22°23' E 120°25'0 0.0
2017-Dec-01 02:16N 22°23' E 120°25'0 0.1
2017-Nov-30 23:46N 22°23' E 120°25'0 0.9
2017-Nov-30 23:21N 22°23' E 120°25'0 0.6
2017-Nov-30 22:49N 22°23' E 120°25'0 0.0
2017-Nov-30 02:52N 22°23' E 120°25'0 0.7
2017-Nov-30 02:27N 22°23' E 120°25'0 0.1
2017-Nov-30 01:54N 22°23' E 120°25'0 0.1
2017-Nov-30 00:38N 22°23' E 120°25'0 0.1
2017-Nov-29 22:33N 22°23' E 120°25'5 0.2
2017-Nov-29 01:10N 22°24' E 120°20'1 4.6
2017-Nov-29 01:00N 22°24' E 120°21'4 0.1
2017-Nov-27 05:43N 22°25' E 120°25'3 8.1
2017-Nov-27 05:20N 22°28' E 120°26'  

Dump ship's entire track history